Time;durP1;ratioP1;P1;durP2;ratioP2;P2;SDS_P1;SDS_P2;PMS_P1;PMS_P2;Temp;Humidity;BMP_temperature;BMP_pressure;BME280_temperature;BME280_humidity;BME280_pressure;Samples;Min_cycle;Max_cycle;Signal;HPM_P1;HPM_P2
2023/07/11 00:02:03;;;;;;;6.60;3.10;;;;;;;18.78;67.88;100472.52;103709;280;39651;-69
2023/07/11 00:04:48;;;;;;;5.90;3.20;;;;;;;18.74;67.90;100460.63;103704;280;38399;-69
2023/07/11 00:07:27;;;;;;;6.80;3.40;;;;;;;18.73;68.47;100449.73;103682;280;39661;-69
2023/07/11 00:10:06;;;;;;;6.20;3.40;;;;;;;18.70;68.32;100443.73;103699;280;39419;-69
2023/07/11 00:12:47;;;;;;;9.20;4.00;;;;;;;18.74;68.15;100442.21;103663;280;38279;-69
2023/07/11 00:15:21;;;;;;;10.80;4.80;;;;;;;18.74;67.72;100444.00;103699;280;39560;-70
2023/07/11 00:17:55;;;;;;;10.00;4.80;;;;;;;18.71;67.91;100451.29;103629;280;38243;-71
2023/07/11 00:20:29;;;;;;;10.90;5.10;;;;;;;18.62;68.90;100462.30;103728;280;38623;-72
2023/07/11 00:23:03;;;;;;;9.70;4.30;;;;;;;18.54;68.46;100472.92;103677;280;38679;-72
2023/07/11 00:25:37;;;;;;;10.80;4.90;;;;;;;18.47;68.91;100476.43;103678;280;38425;-69
2023/07/11 00:28:17;;;;;;;9.60;5.30;;;;;;;18.41;69.60;100482.48;103677;280;39888;-69
2023/07/11 00:30:57;;;;;;;8.60;4.90;;;;;;;18.34;70.44;100487.54;103657;280;38786;-69
2023/07/11 00:33:33;;;;;;;8.80;4.50;;;;;;;18.26;70.85;100484.77;103667;280;38254;-70
2023/07/11 00:36:07;;;;;;;7.10;3.90;;;;;;;18.19;71.59;100474.84;103770;280;39708;-68
2023/07/11 00:38:44;;;;;;;6.90;4.60;;;;;;;18.14;71.85;100461.39;103705;280;38295;-68
2023/07/11 00:41:23;;;;;;;5.90;4.50;;;;;;;18.11;72.26;100460.21;103691;280;38359;-68
2023/07/11 00:44:03;;;;;;;8.10;5.50;;;;;;;18.10;72.44;100466.09;103731;280;38935;-71
2023/07/11 00:46:37;;;;;;;8.60;5.50;;;;;;;18.07;72.71;100460.25;103683;280;38260;-72
2023/07/11 00:49:16;;;;;;;11.70;7.20;;;;;;;18.05;72.62;100449.99;103649;279;171648;-69
2023/07/11 00:51:55;;;;;;;15.00;8.20;;;;;;;18.11;72.26;100446.73;103701;280;38910;-67
2023/07/11 00:54:32;;;;;;;14.80;9.50;;;;;;;18.14;71.50;100446.04;103720;280;38426;-68
2023/07/11 00:57:11;;;;;;;13.10;7.10;;;;;;;18.13;70.38;100442.06;103679;280;39427;-70
2023/07/11 00:59:48;;;;;;;8.20;5.70;;;;;;;18.11;69.52;100431.75;103684;280;38262;-71
2023/07/11 01:02:23;;;;;;;5.70;3.40;;;;;;;18.10;69.31;100429.02;103669;280;39622;-73
2023/07/11 01:04:57;;;;;;;6.40;3.60;;;;;;;18.05;68.93;100424.20;103667;280;38795;-68
2023/07/11 01:07:37;;;;;;;5.30;3.40;;;;;;;18.02;69.10;100427.25;103681;279;38317;-69
2023/07/11 01:10:12;;;;;;;7.20;5.70;;;;;;;17.98;69.02;100420.63;103682;280;38682;-68
2023/07/11 01:12:48;;;;;;;12.50;7.40;;;;;;;17.95;68.79;100408.10;103561;280;174789;-70
2023/07/11 01:15:22;;;;;;;11.70;6.90;;;;;;;17.93;68.93;100396.45;103725;280;38565;-69
2023/07/11 01:17:56;;;;;;;7.60;5.10;;;;;;;17.85;68.59;100389.23;103676;280;39840;-68
2023/07/11 01:20:30;;;;;;;5.70;4.10;;;;;;;17.77;68.51;100391.50;103621;280;39953;-71
2023/07/11 01:23:04;;;;;;;4.60;3.40;;;;;;;17.69;68.35;100391.48;103733;279;39645;-73
2023/07/11 01:25:39;;;;;;;9.00;5.50;;;;;;;17.58;68.53;100391.17;103765;279;39021;-69
2023/07/11 01:28:14;;;;;;;9.00;5.60;;;;;;;17.52;68.87;100386.25;103727;280;38766;-70
2023/07/11 01:30:48;;;;;;;7.20;4.50;;;;;;;17.49;68.57;100381.38;103741;280;38221;-72
2023/07/11 01:33:24;;;;;;;9.50;3.70;;;;;;;17.48;68.77;100379.16;103688;280;38605;-72
2023/07/11 01:35:58;;;;;;;5.10;2.60;;;;;;;17.45;68.98;100380.59;103720;280;38455;-69
2023/07/11 01:38:33;;;;;;;5.50;2.40;;;;;;;17.44;68.97;100387.37;103700;280;38394;-70
2023/07/11 01:41:07;;;;;;;3.50;2.30;;;;;;;17.44;68.98;100389.99;103730;280;39467;-71
2023/07/11 01:43:42;;;;;;;3.00;2.40;;;;;;;17.45;69.04;100393.84;103670;280;38382;-72
2023/07/11 01:46:16;;;;;;;4.30;2.30;;;;;;;17.46;69.08;100388.27;103652;280;38631;-69
2023/07/11 01:48:56;;;;;;;2.90;2.30;;;;;;;17.45;68.97;100393.62;103678;280;39549;-69
2023/07/11 01:51:35;;;;;;;2.80;2.20;;;;;;;17.44;68.87;100399.91;103621;280;38860;-69
2023/07/11 01:54:10;;;;;;;5.20;2.70;;;;;;;17.44;69.09;100394.22;103654;280;38994;-72
2023/07/11 01:56:44;;;;;;;4.40;2.60;;;;;;;17.45;69.31;100396.09;103683;280;38524;-73
2023/07/11 01:59:18;;;;;;;3.00;2.50;;;;;;;17.46;69.56;100399.17;103714;280;39503;-72
2023/07/11 02:01:52;;;;;;;3.80;2.90;;;;;;;17.45;69.64;100400.35;103661;280;40336;-73
2023/07/11 02:04:26;;;;;;;4.10;2.30;;;;;;;17.44;69.45;100387.73;103728;280;39936;-70
2023/07/11 02:07:01;;;;;;;3.90;2.40;;;;;;;17.44;69.87;100387.20;103781;280;39834;-72
2023/07/11 02:09:35;;;;;;;3.90;2.30;;;;;;;17.43;69.61;100397.80;103736;280;38906;-71
2023/07/11 02:12:11;;;;;;;3.60;2.20;;;;;;;17.45;69.93;100401.20;103640;280;38489;-71
2023/07/11 02:14:46;;;;;;;3.70;2.50;;;;;;;17.43;69.94;100391.30;103733;280;38282;-73
2023/07/11 02:17:21;;;;;;;2.30;2.10;;;;;;;17.39;70.53;100382.58;103668;268;38396;-72
2023/07/11 02:19:55;;;;;;;3.60;2.50;;;;;;;17.36;70.67;100378.95;103574;280;188859;-72
2023/07/11 02:22:29;;;;;;;4.10;2.10;;;;;;;17.38;70.48;100383.02;103698;280;38798;-73
2023/07/11 02:25:03;;;;;;;3.60;2.20;;;;;;;17.39;70.42;100385.36;103678;280;38448;-72
2023/07/11 02:27:38;;;;;;;2.60;2.00;;;;;;;17.41;70.45;100384.06;103663;279;40071;-72
2023/07/11 02:30:15;;;;;;;4.30;2.40;;;;;;;17.39;70.82;100386.83;103664;280;38728;-70
2023/07/11 02:32:49;;;;;;;2.50;2.10;;;;;;;17.31;72.00;100391.06;103671;279;38944;-68
2023/07/11 02:35:24;;;;;;;2.30;2.10;;;;;;;17.22;72.22;100395.84;103688;279;38388;-73
2023/07/11 02:37:58;;;;;;;3.00;2.40;;;;;;;17.19;72.92;100402.40;103691;280;38629;-70
2023/07/11 02:40:32;;;;;;;3.40;2.20;;;;;;;17.17;73.25;100401.62;103711;280;38603;-68
2023/07/11 02:43:06;;;;;;;2.50;2.20;;;;;;;17.19;73.87;100390.27;103684;280;38416;-68
2023/07/11 02:45:40;;;;;;;2.70;2.40;;;;;;;17.15;74.54;100382.96;103716;280;38510;-71
2023/07/11 02:48:14;;;;;;;3.70;2.50;;;;;;;17.12;74.72;100391.39;103699;280;40029;-72
2023/07/11 02:50:48;;;;;;;3.50;2.50;;;;;;;17.13;74.58;100396.79;103689;280;38474;-72
2023/07/11 02:53:22;;;;;;;4.10;2.30;;;;;;;17.12;75.00;100395.82;103665;280;39461;-72
2023/07/11 02:55:56;;;;;;;3.70;2.20;;;;;;;17.10;75.16;100401.75;103715;280;38521;-72
2023/07/11 02:58:31;;;;;;;3.40;2.30;;;;;;;17.09;75.32;100407.79;103677;279;39928;-73
2023/07/11 03:01:06;;;;;;;2.70;2.10;;;;;;;17.06;75.85;100415.73;103743;280;38277;-73
2023/07/11 03:03:41;;;;;;;5.50;2.60;;;;;;;17.09;76.03;100419.64;103709;280;39660;-71
2023/07/11 03:06:18;;;;;;;4.90;3.40;;;;;;;17.11;75.79;100422.33;103620;280;38256;-69
2023/07/11 03:08:56;;;;;;;4.50;2.90;;;;;;;17.13;75.55;100433.45;103692;268;38488;-70
2023/07/11 03:11:34;;;;;;;3.50;2.40;;;;;;;17.14;75.65;100434.81;103690;280;38399;-70
2023/07/11 03:14:08;;;;;;;5.70;2.90;;;;;;;17.14;75.67;100421.76;103711;279;38284;-71
2023/07/11 03:16:42;;;;;;;4.60;2.70;;;;;;;17.17;75.54;100415.75;103652;280;39616;-72
2023/07/11 03:19:16;;;;;;;3.50;2.60;;;;;;;17.21;75.73;100425.50;103691;280;39687;-73
2023/07/11 03:21:50;;;;;;;4.30;2.70;;;;;;;17.21;75.28;100425.86;103517;280;188739;-73
2023/07/11 03:24:24;;;;;;;3.60;2.60;;;;;;;17.23;75.20;100429.30;103671;280;39731;-72
2023/07/11 03:26:58;;;;;;;4.70;2.90;;;;;;;17.23;74.93;100440.18;103692;280;39669;-74
2023/07/11 03:29:32;;;;;;;4.70;2.90;;;;;;;17.27;74.90;100441.18;103659;280;38271;-73
2023/07/11 03:32:09;;;;;;;4.20;2.80;;;;;;;17.27;74.99;100446.63;103639;280;39165;-73
2023/07/11 03:34:43;;;;;;;3.50;2.80;;;;;;;17.28;75.42;100450.64;103738;280;38234;-70
2023/07/11 03:37:17;;;;;;;3.60;2.60;;;;;;;17.28;75.06;100463.56;103696;280;38769;-69
2023/07/11 03:39:51;;;;;;;3.30;2.90;;;;;;;17.26;74.74;100465.05;103732;280;38341;-72
2023/07/11 03:42:25;;;;;;;3.80;3.00;;;;;;;17.23;74.89;100472.46;103681;280;39967;-71
2023/07/11 03:44:59;;;;;;;4.60;3.20;;;;;;;17.23;74.73;100469.66;103761;279;38235;-70
2023/07/11 03:47:33;;;;;;;4.90;3.20;;;;;;;17.23;74.91;100463.16;103686;280;38231;-70
2023/07/11 03:50:11;;;;;;;3.40;2.80;;;;;;;17.21;74.72;100473.30;103733;280;38644;-70
2023/07/11 03:52:45;;;;;;;5.70;3.10;;;;;;;17.22;74.57;100473.42;103743;280;39033;-69
2023/07/11 03:55:20;;;;;;;5.10;3.40;;;;;;;17.25;74.37;100473.59;103676;276;38543;-73
2023/07/11 03:57:54;;;;;;;5.10;3.20;;;;;;;17.26;74.27;100474.91;103711;280;39693;-72
2023/07/11 04:00:28;;;;;;;5.00;3.70;;;;;;;17.27;74.15;100482.42;103695;280;38451;-73
2023/07/11 04:03:03;;;;;;;3.70;3.20;;;;;;;17.26;74.24;100485.86;103655;280;38227;-72
2023/07/11 04:05:37;;;;;;;5.60;3.00;;;;;;;17.25;74.30;100486.96;103694;280;39424;-68
2023/07/11 04:08:11;;;;;;;3.30;2.70;;;;;;;17.26;74.29;100486.94;103676;280;39132;-70
2023/07/11 04:10:45;;;;;;;4.20;3.20;;;;;;;17.24;74.28;100483.67;103720;279;38534;-70
2023/07/11 04:13:28;;;;;;;4.60;3.20;;;;;;;17.25;74.69;100490.88;103667;280;38813;-70
2023/07/11 04:16:03;;;;;;;3.90;2.80;;;;;;;17.24;74.81;100493.58;103740;279;38762;-71
2023/07/11 04:18:39;;;;;;;4.10;2.90;;;;;;;17.26;74.87;100498.05;103673;280;39660;-70
2023/07/11 04:21:14;;;;;;;5.40;2.80;;;;;;;17.26;74.98;100502.41;103688;280;39034;-70
2023/07/11 04:23:49;;;;;;;4.00;2.80;;;;;;;17.27;75.14;100511.39;103713;280;39363;-71
2023/07/11 04:26:23;;;;;;;5.70;3.10;;;;;;;17.28;75.18;100516.77;103701;279;38928;-70
2023/07/11 04:28:58;;;;;;;4.10;2.60;;;;;;;17.27;75.01;100525.83;103744;268;39117;-72
2023/07/11 04:31:32;;;;;;;4.50;3.00;;;;;;;17.27;75.26;100518.76;103712;280;39445;-73
2023/07/11 04:34:06;;;;;;;4.60;3.00;;;;;;;17.29;75.20;100516.38;103692;279;38268;-70
2023/07/11 04:36:40;;;;;;;3.70;2.70;;;;;;;17.34;75.36;100516.21;103666;280;38325;-70
2023/07/11 04:39:15;;;;;;;6.30;2.70;;;;;;;17.35;75.49;100511.03;103738;280;38883;-73
2023/07/11 04:41:49;;;;;;;5.40;3.30;;;;;;;17.37;75.27;100512.34;103687;280;38299;-71
2023/07/11 04:44:23;;;;;;;4.50;2.50;;;;;;;17.38;74.96;100511.73;103709;280;38285;-72
2023/07/11 04:46:57;;;;;;;4.40;2.30;;;;;;;17.42;74.73;100512.17;103670;280;38241;-72
2023/07/11 04:49:31;;;;;;;6.50;2.60;;;;;;;17.49;74.81;100513.83;103705;279;38496;-73
2023/07/11 04:52:07;;;;;;;4.20;2.60;;;;;;;17.57;74.63;100523.72;103654;280;39638;-73
2023/07/11 04:54:42;;;;;;;7.50;2.60;;;;;;;17.63;74.48;100532.52;103712;280;38960;-71
2023/07/11 04:57:16;;;;;;;5.30;2.30;;;;;;;17.69;74.27;100530.21;103677;280;38293;-70
2023/07/11 04:59:53;;;;;;;10.00;2.80;;;;;;;17.73;73.99;100524.15;103692;279;38250;-68
2023/07/11 05:02:27;;;;;;;9.40;2.50;;;;;;;17.74;73.60;100512.42;103683;280;39278;-68
2023/07/11 05:05:02;;;;;;;5.20;2.20;;;;;;;17.78;73.41;100509.48;103706;280;38849;-72
2023/07/11 05:07:36;;;;;;;4.40;2.30;;;;;;;17.85;73.11;100502.70;103708;280;39633;-73
2023/07/11 05:10:11;;;;;;;5.10;2.50;;;;;;;17.90;72.71;100499.02;103739;280;38405;-71
2023/07/11 05:12:45;;;;;;;4.20;2.40;;;;;;;17.93;72.79;100500.55;103714;276;38285;-73
2023/07/11 05:15:20;;;;;;;3.10;2.40;;;;;;;17.99;72.72;100501.42;103767;280;39657;-70
2023/07/11 05:17:54;;;;;;;5.50;2.20;;;;;;;18.15;72.91;100501.77;103460;280;434295;-69
2023/07/11 05:20:28;;;;;;;4.20;2.50;;;;;;;18.38;72.65;100501.55;103754;280;39690;-73
2023/07/11 05:23:02;;;;;;;4.80;2.20;;;;;;;18.83;73.29;100497.23;103739;280;39993;-73
2023/07/11 05:25:39;;;;;;;5.40;2.20;;;;;;;19.15;71.94;100494.11;103619;280;39914;-70
2023/07/11 05:28:18;;;;;;;6.30;2.20;;;;;;;19.30;70.58;100497.41;103731;280;38672;-71
2023/07/11 05:30:55;;;;;;;3.40;2.10;;;;;;;19.34;69.27;100499.48;103742;280;38403;-70
2023/07/11 05:33:34;;;;;;;7.10;2.40;;;;;;;19.30;69.16;100491.25;103638;280;38249;-70
2023/07/11 05:36:35;;;;;;;8.40;2.40;;;;;;;19.27;68.78;100484.75;103736;280;38251;-71
2023/07/11 05:39:14;;;;;;;5.20;2.90;;;;;;;19.24;67.82;100483.52;103717;268;38433;-70
2023/07/11 05:41:56;;;;;;;3.50;3.00;;;;;;;19.17;67.93;100485.09;103711;280;38935;-74
2023/07/11 05:44:30;;;;;;;8.00;3.00;;;;;;;19.14;67.70;100489.39;103722;280;38390;-72
2023/07/11 05:47:08;;;;;;;8.40;3.80;;;;;;;19.14;67.89;100491.20;103762;280;38280;-72
2023/07/11 05:49:42;;;;;;;7.80;3.30;;;;;;;19.16;68.28;100499.36;103712;280;38939;-72
2023/07/11 05:52:17;;;;;;;8.70;3.80;;;;;;;19.13;68.06;100503.77;103692;280;39396;-73
2023/07/11 05:54:51;;;;;;;42.50;6.80;;;;;;;19.09;68.64;100510.23;103778;280;38293;-73
2023/07/11 05:57:27;;;;;;;32.30;6.40;;;;;;;19.03;68.36;100511.73;103695;280;39446;-73
2023/07/11 06:00:03;;;;;;;13.90;3.10;;;;;;;18.97;68.25;100517.83;103760;280;38239;-71
2023/07/11 06:02:39;;;;;;;10.50;2.20;;;;;;;18.92;68.26;100526.18;103663;280;38719;-73
2023/07/11 06:05:13;;;;;;;3.70;1.90;;;;;;;18.89;68.42;100535.05;103713;280;39827;-73
2023/07/11 06:07:48;;;;;;;2.20;1.60;;;;;;;18.87;69.28;100538.90;103710;280;38378;-73
2023/07/11 06:10:22;;;;;;;3.20;1.80;;;;;;;18.87;69.35;100539.06;103747;280;38964;-71
2023/07/11 06:12:57;;;;;;;2.90;1.50;;;;;;;18.87;69.15;100538.14;103069;280;899458;-70
2023/07/11 06:15:31;;;;;;;4.20;2.30;;;;;;;18.86;69.33;100539.46;103711;280;38328;-71
2023/07/11 06:18:05;;;;;;;6.20;2.50;;;;;;;18.80;69.25;100538.29;103697;280;38506;-70
2023/07/11 06:20:39;;;;;;;4.10;2.50;;;;;;;18.77;69.19;100536.05;103723;280;38414;-70
2023/07/11 06:23:17;;;;;;;6.70;2.70;;;;;;;18.78;69.45;100535.79;103703;280;38549;-71
2023/07/11 06:25:51;;;;;;;4.00;2.40;;;;;;;18.80;69.92;100537.02;103718;280;38548;-71
2023/07/11 06:28:30;;;;;;;2.80;2.20;;;;;;;18.86;70.32;100538.76;103674;280;38564;-69
2023/07/11 06:31:05;;;;;;;3.90;2.10;;;;;;;18.93;70.72;100536.66;103735;280;38489;-74
2023/07/11 06:33:42;;;;;;;4.00;2.10;;;;;;;18.98;70.81;100537.42;103706;280;38698;-72
2023/07/11 06:36:17;;;;;;;2.80;1.80;;;;;;;19.04;71.57;100538.91;103743;280;38392;-71
2023/07/11 06:38:52;;;;;;;2.70;2.30;;;;;;;19.07;71.82;100542.39;103762;280;38383;-73
2023/07/11 06:41:29;;;;;;;2.70;1.90;;;;;;;19.10;71.78;100543.45;103671;279;38245;-71
2023/07/11 06:44:03;;;;;;;3.00;2.00;;;;;;;19.07;71.42;100542.94;103702;280;38268;-72
2023/07/11 06:46:38;;;;;;;2.90;2.10;;;;;;;19.06;71.04;100550.59;103686;280;39409;-80
2023/07/11 06:49:21;;;;;;;3.10;2.30;;;;;;;19.07;71.32;100547.02;104147;280;38223;-81
2023/07/11 06:52:02;;;;;;;2.70;2.20;;;;;;;19.09;71.18;100552.55;103871;280;39524;-82
2023/07/11 06:54:39;;;;;;;2.20;2.00;;;;;;;19.13;71.00;100556.30;104025;280;38476;-81
2023/07/11 06:57:17;;;;;;;3.10;1.90;;;;;;;19.16;70.83;100558.56;103719;280;38910;-82
2023/07/11 06:59:51;;;;;;;2.50;2.10;;;;;;;19.17;70.80;100562.96;103963;280;38315;-81
2023/07/11 07:05:50;;;;;;;3.00;2.10;;;;;;;19.11;70.65;100571.27;104082;273;38378;-75
2023/07/11 07:08:29;;;;;;;4.00;2.00;;;;;;;19.14;71.13;100572.17;103781;279;38262;-76
2023/07/11 07:11:02;;;;;;;;;;;;;;;19.22;71.54;100576.38;104033;277;38331;-72
2023/07/11 07:13:39;;;;;;;3.10;2.10;;;;;;;19.25;71.87;100581.98;103725;279;39649;-72
2023/07/11 07:16:14;;;;;;;2.70;2.00;;;;;;;19.31;71.68;100580.14;104016;277;38398;-70
2023/07/11 07:18:52;;;;;;;2.30;2.10;;;;;;;19.27;70.61;100580.05;103970;277;38553;-71
2023/07/11 07:21:26;;;;;;;3.20;2.10;;;;;;;19.25;70.49;100585.17;103991;277;38254;-72
2023/07/11 07:24:01;;;;;;;2.30;2.00;;;;;;;19.21;70.21;100584.73;103774;277;38431;-71
2023/07/11 07:26:40;;;;;;;2.70;2.30;;;;;;;19.18;70.32;100588.70;103983;277;38949;-68
2023/07/11 07:29:15;;;;;;;3.70;2.40;;;;;;;19.15;70.35;100586.63;103967;277;38486;-71
2023/07/11 07:31:51;;;;;;;3.30;2.00;;;;;;;19.13;70.33;100584.80;103988;277;38215;-70
2023/07/11 07:34:27;;;;;;;2.10;1.90;;;;;;;19.12;70.33;100588.23;104014;277;38836;-69
2023/07/11 07:37:01;;;;;;;2.90;2.10;;;;;;;19.08;69.98;100596.11;104053;277;39923;-72
2023/07/11 07:39:39;;;;;;;2.80;2.40;;;;;;;19.05;70.07;100595.61;104067;266;38554;-76
2023/07/11 07:42:16;;;;;;;3.60;2.10;;;;;;;19.00;69.95;100593.09;104009;279;38228;-79
2023/07/11 07:44:57;;;;;;;2.80;2.00;;;;;;;18.99;70.27;100589.66;104211;277;38250;-76
2023/07/11 07:47:35;;;;;;;3.20;2.00;;;;;;;19.04;70.77;100597.07;104286;277;39497;-79
2023/07/11 07:50:13;;;;;;;3.30;2.20;;;;;;;19.15;70.93;100599.70;104207;277;187886;-80
2023/07/11 07:52:49;;;;;;;4.70;2.10;;;;;;;19.24;70.83;100602.57;104072;277;38279;-80
2023/07/11 07:55:31;;;;;;;3.20;1.90;;;;;;;19.31;70.69;100602.92;104148;277;39451;-77
2023/07/11 07:58:07;;;;;;;2.70;2.20;;;;;;;19.43;70.62;100602.14;103797;279;39446;-76
2023/07/11 08:00:41;;;;;;;3.70;2.00;;;;;;;19.55;70.56;100607.26;103984;277;39427;-77
2023/07/11 08:03:17;;;;;;;2.30;2.10;;;;;;;19.61;69.72;100610.09;104086;277;38282;-78
2023/07/11 08:05:56;;;;;;;2.50;1.90;;;;;;;19.64;69.23;100611.65;104221;277;38341;-79
2023/07/11 08:08:33;;;;;;;2.50;2.10;;;;;;;19.63;69.02;100617.52;104059;278;174414;-80
2023/07/11 08:11:11;;;;;;;2.30;1.80;;;;;;;19.67;69.22;100614.95;103962;277;38694;-77
2023/07/11 08:13:45;;;;;;;3.20;2.10;;;;;;;19.74;69.11;100621.67;103906;277;38678;-77
2023/07/11 08:16:20;;;;;;;2.20;2.00;;;;;;;19.83;68.78;100624.58;104077;277;38478;-76
2023/07/11 08:18:55;;;;;;;2.30;2.00;;;;;;;19.89;68.39;100626.47;103993;277;38400;-75
2023/07/11 08:21:30;;;;;;;3.10;2.10;;;;;;;19.94;68.42;100630.11;103953;277;174405;-76
2023/07/11 08:24:05;;;;;;;2.70;1.90;;;;;;;19.96;67.71;100628.25;104005;277;38430;-77
2023/07/11 08:26:39;;;;;;;3.10;2.10;;;;;;;19.98;68.03;100633.73;103981;277;38270;-77
2023/07/11 08:29:18;;;;;;;2.30;1.90;;;;;;;20.03;67.74;100634.95;103973;277;39037;-77
2023/07/11 08:31:53;;;;;;;2.40;1.60;;;;;;;20.03;67.39;100633.05;103825;279;39516;-77
2023/07/11 08:34:29;;;;;;;2.70;1.70;;;;;;;20.03;67.43;100633.89;103858;277;38486;-77
2023/07/11 08:37:04;;;;;;;4.50;2.10;;;;;;;20.11;67.36;100635.23;103860;278;39957;-77
2023/07/11 08:39:42;;;;;;;4.60;2.00;;;;;;;20.21;67.17;100635.09;103721;277;38365;-77
2023/07/11 08:42:27;;;;;;;2.30;1.90;;;;;;;20.30;67.10;100635.64;104043;277;39642;-80
2023/07/11 08:45:06;;;;;;;3.20;1.70;;;;;;;20.32;66.76;100639.01;104036;277;38419;-78
2023/07/11 08:47:43;;;;;;;3.50;1.70;;;;;;;20.36;66.46;100642.64;104222;266;38416;-79
2023/07/11 08:50:20;;;;;;;3.70;1.80;;;;;;;20.47;67.10;100641.85;103991;277;39623;-78
2023/07/11 08:53:01;;;;;;;6.60;2.20;;;;;;;20.55;65.48;100644.43;104171;301;39471;-79
2023/07/11 08:55:37;;;;;;;4.20;2.00;;;;;;;20.53;64.91;100643.70;104365;266;38241;-78
2023/07/11 08:58:16;;;;;;;4.00;2.50;;;;;;;20.62;65.88;100646.36;104046;277;171592;-79
2023/07/11 09:00:52;;;;;;;5.60;2.10;;;;;;;20.76;65.83;100645.66;104019;278;38426;-77
2023/07/11 09:03:30;;;;;;;5.60;2.20;;;;;;;20.90;65.97;100646.54;103932;277;39489;-77
2023/07/11 09:06:08;;;;;;;3.60;1.90;;;;;;;21.06;65.39;100650.12;103895;278;38244;-76
2023/07/11 09:08:45;;;;;;;5.00;2.10;;;;;;;21.20;65.06;100644.21;103814;277;38258;-77
2023/07/11 09:11:21;;;;;;;3.80;1.70;;;;;;;21.35;64.84;100644.49;103981;269;39724;-78
2023/07/11 09:14:03;;;;;;;4.90;1.90;;;;;;;21.51;64.43;100648.17;103982;277;38306;-79
2023/07/11 09:16:41;;;;;;;3.30;1.90;;;;;;;21.69;63.84;100649.64;104000;277;38362;-77
2023/07/11 09:19:31;;;;;;;3.50;1.70;;;;;;;21.82;62.88;100649.27;103794;277;174669;-76
2023/07/11 09:22:13;;;;;;;3.10;1.80;;;;;;;21.97;63.12;100648.36;103939;277;38933;-78
2023/07/11 09:24:53;;;;;;;3.00;2.00;;;;;;;22.12;62.28;100649.13;103906;277;38429;-76
2023/07/11 09:27:31;;;;;;;1.80;1.70;;;;;;;22.24;61.50;100645.52;103880;277;38254;-76
2023/07/11 09:30:11;;;;;;;2.90;1.70;;;;;;;22.35;60.80;100647.22;103802;277;38240;-75
2023/07/11 09:32:48;;;;;;;2.00;1.50;;;;;;;22.53;60.42;100643.79;103972;277;39643;-77
2023/07/11 09:35:29;;;;;;;1.80;1.60;;;;;;;22.68;59.37;100638.41;103953;277;38691;-78
2023/07/11 09:38:08;;;;;;;1.90;1.70;;;;;;;22.83;59.32;100630.95;103960;277;38242;-77
2023/07/11 09:40:48;;;;;;;1.70;1.50;;;;;;;23.01;59.15;100630.66;103982;277;38281;-77
2023/07/11 09:43:22;;;;;;;2.80;1.60;;;;;;;23.35;59.29;100624.15;103904;277;38237;-72
2023/07/11 09:45:56;;;;;;;3.90;1.70;;;;;;;23.86;59.15;100619.14;103941;266;38261;-73
2023/07/11 09:48:34;;;;;;;1.60;1.50;;;;;;;24.37;56.92;100618.93;103942;277;38481;-73
2023/07/11 09:51:24;;;;;;;1.60;1.40;;;;;;;24.87;56.67;100613.92;103985;277;39407;-74
2023/07/11 09:53:59;;;;;;;1.20;1.10;;;;;;;25.43;55.34;100603.10;103950;277;38238;-75
2023/07/11 09:56:43;;;;;;;1.40;1.20;;;;;;;25.93;53.90;100598.41;103998;277;38781;-73
2023/07/11 09:59:18;;;;;;;2.50;1.30;;;;;;;26.21;51.81;100604.31;103732;277;38423;-73
2023/07/11 10:01:55;;;;;;;1.60;1.50;;;;;;;26.22;50.08;100607.21;103992;277;39802;-75
2023/07/11 10:04:31;;;;;;;1.40;1.20;;;;;;;26.20;48.96;100607.13;103966;277;38429;-74
2023/07/11 10:07:06;;;;;;;1.20;1.20;;;;;;;26.15;48.72;100607.38;103955;277;38637;-75
2023/07/11 10:09:49;;;;;;;1.90;1.40;;;;;;;26.10;48.22;100602.95;103925;277;38886;-75
2023/07/11 10:12:26;;;;;;;2.80;1.20;;;;;;;26.03;48.78;100597.63;104021;277;39507;-75
2023/07/11 10:15:01;;;;;;;2.10;1.40;;;;;;;26.12;48.60;100603.30;103707;268;38734;-74
2023/07/11 10:17:37;;;;;;;2.90;1.20;;;;;;;26.34;48.99;100603.02;103712;277;39734;-74
2023/07/11 10:20:21;;;;;;;1.80;1.50;;;;;;;26.64;49.61;100601.82;103922;277;38767;-74
2023/07/11 10:23:02;;;;;;;1.80;1.30;;;;;;;26.95;48.09;100598.63;103951;277;39451;-76
2023/07/11 10:25:36;;;;;;;2.00;1.10;;;;;;;27.12;46.59;100598.63;103988;277;38245;-76
2023/07/11 10:28:29;;;;;;;1.60;1.40;;;;;;;27.31;47.41;100590.19;103954;277;38241;-74
2023/07/11 10:31:08;;;;;;;1.70;1.20;;;;;;;27.61;46.88;100591.54;103969;277;38797;-73
2023/07/11 10:33:48;;;;;;;2.00;1.00;;;;;;;27.77;46.01;100595.39;104055;277;38223;-72
2023/07/11 10:36:27;;;;;;;1.60;1.40;;;;;;;27.93;45.25;100592.55;103977;277;38492;-72
2023/07/11 10:39:01;;;;;;;;;;;;;;;27.98;44.45;100590.27;103962;277;39674;-72
2023/07/11 10:41:37;;;;;;;2.90;1.40;;;;;;;27.93;43.15;100586.71;103773;279;39853;-73
2023/07/11 10:44:18;;;;;;;2.00;1.50;;;;;;;27.99;43.94;100585.60;103328;277;889909;-72
2023/07/11 10:46:54;;;;;;;1.80;1.40;;;;;;;28.19;43.90;100583.48;104005;277;38494;-72
2023/07/11 10:49:29;;;;;;;2.90;1.30;;;;;;;28.33;43.64;100584.29;103965;266;38255;-73
2023/07/11 10:52:07;;;;;;;1.40;1.30;;;;;;;28.43;43.14;100582.10;104030;277;38436;-77
2023/07/11 10:54:48;;;;;;;2.10;1.30;;;;;;;28.41;41.08;100587.35;103960;277;39915;-77
2023/07/11 10:57:35;;;;;;;2.30;1.30;;;;;;;28.38;40.97;100587.02;103716;277;40021;-73
2023/07/11 11:00:16;;;;;;;;;;;;;;;28.27;41.20;100585.10;103994;277;38541;-73
2023/07/11 11:03:00;;;;;;;1.70;1.40;;;;;;;28.19;41.68;100588.13;103990;277;39386;-72
2023/07/11 11:05:43;;;;;;;1.40;1.00;;;;;;;28.08;39.48;100588.58;104022;277;38656;-71
2023/07/11 11:08:23;;;;;;;1.30;1.20;;;;;;;27.65;38.42;100585.52;103943;277;38454;-71
2023/07/11 11:11:01;;;;;;;1.50;1.40;;;;;;;27.22;38.32;100587.73;103940;277;38256;-72
2023/07/11 11:13:39;;;;;;;1.30;1.20;;;;;;;26.95;39.91;100586.95;103983;277;39397;-72
2023/07/11 11:16:21;;;;;;;1.30;1.20;;;;;;;26.87;40.37;100583.91;104008;277;38536;-71
2023/07/11 11:19:08;;;;;;;1.70;1.20;;;;;;;26.80;41.29;100583.50;103987;277;38805;-71
2023/07/11 11:21:50;;;;;;;3.00;1.40;;;;;;;26.74;42.37;100583.56;103983;265;38488;-72
2023/07/11 11:24:53;;;;;;;1.30;1.20;;;;;;;26.63;42.80;100583.29;104038;277;38391;-72
2023/07/11 11:27:52;;;;;;;1.80;1.30;;;;;;;26.54;43.28;100584.80;104041;277;38471;-72
2023/07/11 11:30:33;;;;;;;;;;;;;;;26.49;43.08;100585.66;104042;277;38228;-71
2023/07/11 11:33:27;;;;;;;1.50;1.30;;;;;;;26.47;43.81;100585.09;103980;277;38362;-71
2023/07/11 11:36:08;;;;;;;1.90;1.50;;;;;;;26.67;44.58;100588.45;103943;277;38561;-72
2023/07/11 11:39:04;;;;;;;1.60;1.50;;;;;;;26.78;44.34;100589.80;104019;277;39867;-72
2023/07/11 11:41:44;;;;;;;2.10;1.50;;;;;;;26.69;44.00;100589.60;104010;277;38747;-71
2023/07/11 11:44:25;;;;;;;2.20;1.60;;;;;;;26.59;44.00;100587.80;103978;277;38490;-72
2023/07/11 11:47:01;;;;;;;2.00;1.60;;;;;;;26.69;44.63;100579.81;103990;277;38222;-72
2023/07/11 11:49:35;;;;;;;2.40;1.90;;;;;;;26.88;44.67;100579.43;103965;277;38260;-73
2023/07/11 11:52:15;;;;;;;2.40;1.90;;;;;;;26.95;44.23;100574.94;104021;277;38347;-73
2023/07/11 11:54:52;;;;;;;1.80;1.70;;;;;;;27.00;44.19;100574.80;103796;277;39496;-73
2023/07/11 11:57:30;;;;;;;3.30;1.80;;;;;;;26.94;43.53;100575.06;103880;277;38366;-72
2023/07/11 12:00:05;;;;;;;2.10;1.80;;;;;;;26.77;43.19;100573.38;103996;277;39801;-73
2023/07/11 12:02:43;;;;;;;3.00;1.60;;;;;;;26.60;44.03;100572.36;104027;277;38253;-72
2023/07/11 12:05:22;;;;;;;1.80;1.70;;;;;;;26.78;45.14;100571.61;103776;279;38702;-73
2023/07/11 12:08:27;;;;;;;2.30;1.90;;;;;;;27.06;44.21;100564.92;103961;281;39392;-74
2023/07/11 12:11:39;;;;;;;3.40;2.20;;;;;;;27.17;42.90;100568.08;103968;277;38408;-72
2023/07/11 12:14:28;;;;;;;1.80;1.70;;;;;;;26.93;42.76;100561.20;103849;277;38341;-72